sensor_id;sensor_type;location;lat;lon;timestamp;pressure;altitude;pressure_sealevel;temperature;humidity
46464;BME280;32161;48.148;-1.554;2024-02-15T00:00:04;100934.84;;;13.58;100.00
46464;BME280;32161;48.148;-1.554;2024-02-15T00:02:34;100932.00;;;13.53;100.00
46464;BME280;32161;48.148;-1.554;2024-02-15T00:05:03;100929.53;;;13.51;100.00
46464;BME280;32161;48.148;-1.554;2024-02-15T00:07:31;100925.13;;;13.50;100.00
46464;BME280;32161;48.148;-1.554;2024-02-15T00:10:01;100919.34;;;13.47;100.00
46464;BME280;32161;48.148;-1.554;2024-02-15T00:12:30;100922.28;;;13.45;100.00
46464;BME280;32161;48.148;-1.554;2024-02-15T00:14:57;100913.28;;;13.44;100.00
46464;BME280;32161;48.148;-1.554;2024-02-15T00:17:25;100902.34;;;13.44;100.00
46464;BME280;32161;48.148;-1.554;2024-02-15T00:19:55;100913.28;;;13.44;100.00
46464;BME280;32161;48.148;-1.554;2024-02-15T00:22:24;100908.06;;;13.43;100.00
46464;BME280;32161;48.148;-1.554;2024-02-15T00:24:52;100908.91;;;13.43;100.00
46464;BME280;32161;48.148;-1.554;2024-02-15T00:27:20;100917.91;;;13.44;100.00
46464;BME280;32161;48.148;-1.554;2024-02-15T00:29:47;100911.63;;;13.43;100.00
46464;BME280;32161;48.148;-1.554;2024-02-15T00:32:15;100907.25;;;13.42;100.00
46464;BME280;32161;48.148;-1.554;2024-02-15T00:34:42;100895.50;;;13.42;100.00
46464;BME280;32161;48.148;-1.554;2024-02-15T00:37:10;100895.72;;;13.40;100.00
46464;BME280;32161;48.148;-1.554;2024-02-15T00:39:39;100891.34;;;13.39;100.00
46464;BME280;32161;48.148;-1.554;2024-02-15T00:42:07;100889.09;;;13.36;100.00
46464;BME280;32161;48.148;-1.554;2024-02-15T00:44:35;100884.72;;;13.35;100.00
46464;BME280;32161;48.148;-1.554;2024-02-15T00:47:03;100875.13;;;13.33;100.00
46464;BME280;32161;48.148;-1.554;2024-02-15T00:49:31;100866.91;;;13.33;100.00
46464;BME280;32161;48.148;-1.554;2024-02-15T00:51:59;100862.81;;;13.30;100.00
46464;BME280;32161;48.148;-1.554;2024-02-15T00:54:27;100867.41;;;13.30;100.00
46464;BME280;32161;48.148;-1.554;2024-02-15T00:56:56;100872.03;;;13.29;100.00
46464;BME280;32161;48.148;-1.554;2024-02-15T00:59:23;100863.28;;;13.27;100.00
46464;BME280;32161;48.148;-1.554;2024-02-15T01:01:51;100858.41;;;13.29;100.00
46464;BME280;32161;48.148;-1.554;2024-02-15T01:04:19;100857.81;;;13.27;100.00
46464;BME280;32161;48.148;-1.554;2024-02-15T01:06:47;100859.47;;;13.28;100.00
46464;BME280;32161;48.148;-1.554;2024-02-15T01:09:15;100856.75;;;13.28;100.00
46464;BME280;32161;48.148;-1.554;2024-02-15T01:11:42;100857.00;;;13.27;100.00
46464;BME280;32161;48.148;-1.554;2024-02-15T01:14:11;100864.13;;;13.28;100.00
46464;BME280;32161;48.148;-1.554;2024-02-15T01:16:39;100867.91;;;13.27;100.00
46464;BME280;32161;48.148;-1.554;2024-02-15T01:19:06;100862.13;;;13.23;100.00
46464;BME280;32161;48.148;-1.554;2024-02-15T01:21:34;100857.13;;;13.20;100.00
46464;BME280;32161;48.148;-1.554;2024-02-15T01:24:01;100849.19;;;13.18;100.00
46464;BME280;32161;48.148;-1.554;2024-02-15T01:26:29;100852.75;;;13.19;100.00
46464;BME280;32161;48.148;-1.554;2024-02-15T01:28:57;100858.19;;;13.19;100.00
46464;BME280;32161;48.148;-1.554;2024-02-15T01:31:26;100858.19;;;13.19;100.00
46464;BME280;32161;48.148;-1.554;2024-02-15T01:33:53;100860.09;;;13.18;100.00
46464;BME280;32161;48.148;-1.554;2024-02-15T01:36:21;100852.13;;;13.17;100.00
46464;BME280;32161;48.148;-1.554;2024-02-15T01:38:48;100852.75;;;13.19;100.00
46464;BME280;32161;48.148;-1.554;2024-02-15T01:41:16;100839.31;;;13.17;100.00
46464;BME280;32161;48.148;-1.554;2024-02-15T01:43:44;100843.94;;;13.17;100.00
46464;BME280;32161;48.148;-1.554;2024-02-15T01:46:12;100839.78;;;13.14;100.00
46464;BME280;32161;48.148;-1.554;2024-02-15T01:48:42;100830.78;;;13.14;100.00
46464;BME280;32161;48.148;-1.554;2024-02-15T01:51:12;100830.78;;;13.14;100.00
46464;BME280;32161;48.148;-1.554;2024-02-15T01:53:42;100837.59;;;13.11;100.00
46464;BME280;32161;48.148;-1.554;2024-02-15T01:56:14;100831.53;;;13.09;100.00
46464;BME280;32161;48.148;-1.554;2024-02-15T01:58:43;100816.25;;;13.08;100.00
46464;BME280;32161;48.148;-1.554;2024-02-15T02:01:13;100822.53;;;13.09;100.00
46464;BME280;32161;48.148;-1.554;2024-02-15T02:03:44;100818.97;;;13.08;100.00
46464;BME280;32161;48.148;-1.554;2024-02-15T02:06:12;100816.50;;;13.07;100.00
46464;BME280;32161;48.148;-1.554;2024-02-15T02:08:40;100813.75;;;13.07;100.00
46464;BME280;32161;48.148;-1.554;2024-02-15T02:11:07;100806.63;;;13.06;100.00
46464;BME280;32161;48.148;-1.554;2024-02-15T02:13:35;100805.81;;;13.05;100.00
46464;BME280;32161;48.148;-1.554;2024-02-15T02:16:03;100813.16;;;13.05;100.00
46464;BME280;32161;48.148;-1.554;2024-02-15T02:18:31;100813.75;;;13.07;100.00
46464;BME280;32161;48.148;-1.554;2024-02-15T02:20:59;100805.56;;;13.07;100.00
46464;BME280;32161;48.148;-1.554;2024-02-15T02:23:29;100801.16;;;13.06;100.00
46464;BME280;32161;48.148;-1.554;2024-02-15T02:25:59;100797.06;;;13.03;100.00
46464;BME280;32161;48.148;-1.554;2024-02-15T02:28:27;100794.53;;;13.02;100.00
46464;BME280;32161;48.148;-1.554;2024-02-15T02:30:55;100781.97;;;13.01;100.00
46464;BME280;32161;48.148;-1.554;2024-02-15T02:33:22;100774.06;;;12.99;100.00
46464;BME280;32161;48.148;-1.554;2024-02-15T02:35:51;100775.38;;;12.97;100.00
46464;BME280;32161;48.148;-1.554;2024-02-15T02:38:19;100770.47;;;12.99;100.00
46464;BME280;32161;48.148;-1.554;2024-02-15T02:40:46;100762.88;;;13.01;100.00
46464;BME280;32161;48.148;-1.554;2024-02-15T02:43:15;100769.91;;;12.97;100.00
46464;BME280;32161;48.148;-1.554;2024-02-15T02:45:43;100781.97;;;13.01;100.00
46464;BME280;32161;48.148;-1.554;2024-02-15T02:48:11;100767.53;;;13.00;100.00
46464;BME280;32161;48.148;-1.554;2024-02-15T02:50:39;100754.09;;;12.99;100.00
46464;BME280;32161;48.148;-1.554;2024-02-15T02:53:07;100751.16;;;13.00;100.00
46464;BME280;32161;48.148;-1.554;2024-02-15T02:55:37;100746.25;;;13.02;100.00
46464;BME280;32161;48.148;-1.554;2024-02-15T02:58:06;100749.56;;;13.04;100.00
46464;BME280;32161;48.148;-1.554;2024-02-15T03:00:35;100749.81;;;13.03;100.00
46464;BME280;32161;48.148;-1.554;2024-02-15T03:03:03;100742.47;;;13.03;100.00
46464;BME280;32161;48.148;-1.554;2024-02-15T03:05:31;100749.25;;;13.01;100.00
46464;BME280;32161;48.148;-1.554;2024-02-15T03:07:59;100746.25;;;13.02;100.00
46464;BME280;32161;48.148;-1.554;2024-02-15T03:10:26;100741.88;;;13.01;100.00
46464;BME280;32161;48.148;-1.554;2024-02-15T03:12:54;100722.22;;;12.99;100.00
46464;BME280;32161;48.148;-1.554;2024-02-15T03:15:22;100727.16;;;13.02;100.00
46464;BME280;32161;48.148;-1.554;2024-02-15T03:17:51;100731.22;;;13.00;100.00
46464;BME280;32161;48.148;-1.554;2024-02-15T03:20:18;100724.09;;;12.99;100.00
46464;BME280;32161;48.148;-1.554;2024-02-15T03:22:53;100720.53;;;12.98;100.00
46464;BME280;32161;48.148;-1.554;2024-02-15T03:25:21;100716.50;;;13.01;100.00
46464;BME280;32161;48.148;-1.554;2024-02-15T03:27:49;100719.22;;;13.01;100.00
46464;BME280;32161;48.148;-1.554;2024-02-15T03:30:19;100713.34;;;13.09;100.00
46464;BME280;32161;48.148;-1.554;2024-02-15T03:32:46;100698.41;;;13.11;100.00
46464;BME280;32161;48.148;-1.554;2024-02-15T03:35:17;100701.28;;;13.05;100.00
46464;BME280;32161;48.148;-1.554;2024-02-15T03:37:44;100696.31;;;13.02;100.00
46464;BME280;32161;48.148;-1.554;2024-02-15T03:40:13;100692.19;;;12.99;100.00
46464;BME280;32161;48.148;-1.554;2024-02-15T03:42:40;100695.16;;;12.98;100.00
46464;BME280;32161;48.148;-1.554;2024-02-15T03:45:09;100688.53;;;12.93;100.00
46464;BME280;32161;48.148;-1.554;2024-02-15T03:47:37;100690.72;;;12.91;100.00
46464;BME280;32161;48.148;-1.554;2024-02-15T03:50:06;100686.06;;;12.92;100.00
46464;BME280;32161;48.148;-1.554;2024-02-15T03:52:37;100686.06;;;12.92;100.00
46464;BME280;32161;48.148;-1.554;2024-02-15T03:55:06;100676.47;;;12.89;100.00
46464;BME280;32161;48.148;-1.554;2024-02-15T03:57:37;100671.84;;;12.90;100.00
46464;BME280;32161;48.148;-1.554;2024-02-15T04:00:07;100667.69;;;12.87;100.00
46464;BME280;32161;48.148;-1.554;2024-02-15T04:02:37;100663.59;;;12.85;100.00
46464;BME280;32161;48.148;-1.554;2024-02-15T04:05:07;100659.22;;;12.84;100.00
46464;BME280;32161;48.148;-1.554;2024-02-15T04:07:36;100659.44;;;12.82;100.00
46464;BME280;32161;48.148;-1.554;2024-02-15T04:10:05;100671.44;;;12.81;100.00
46464;BME280;32161;48.148;-1.554;2024-02-15T04:12:34;100670.34;;;12.82;100.00
46464;BME280;32161;48.148;-1.554;2024-02-15T04:15:03;100660.25;;;12.83;100.00
46464;BME280;32161;48.148;-1.554;2024-02-15T04:17:37;100659.44;;;12.82;100.00
46464;BME280;32161;48.148;-1.554;2024-02-15T04:20:06;100656.16;;;12.80;100.00
46464;BME280;32161;48.148;-1.554;2024-02-15T04:22:36;100651.50;;;12.81;100.00
46464;BME280;32161;48.148;-1.554;2024-02-15T04:25:05;100659.94;;;12.79;100.00
46464;BME280;32161;48.148;-1.554;2024-02-15T04:27:34;100652.81;;;12.78;100.00
46464;BME280;32161;48.148;-1.554;2024-02-15T04:30:02;100648.44;;;12.77;100.00
46464;BME280;32161;48.148;-1.554;2024-02-15T04:32:30;100648.69;;;12.76;100.00
46464;BME280;32161;48.148;-1.554;2024-02-15T04:35:00;100640.75;;;12.74;100.00
46464;BME280;32161;48.148;-1.554;2024-02-15T04:37:29;100640.16;;;12.72;100.00
46464;BME280;32161;48.148;-1.554;2024-02-15T04:39:59;100648.13;;;12.74;100.00
46464;BME280;32161;48.148;-1.554;2024-02-15T04:42:34;100651.34;;;12.70;100.00
46464;BME280;32161;48.148;-1.554;2024-02-15T04:45:04;100640.16;;;12.72;100.00
46464;BME280;32161;48.148;-1.554;2024-02-15T04:47:34;100631.16;;;12.71;100.00
46464;BME280;32161;48.148;-1.554;2024-02-15T04:50:02;100631.97;;;12.72;100.00
46464;BME280;32161;48.148;-1.554;2024-02-15T04:52:32;100627.13;;;12.74;100.00
46464;BME280;32161;48.148;-1.554;2024-02-15T04:55:01;100618.59;;;12.70;100.00
46464;BME280;32161;48.148;-1.554;2024-02-15T04:57:30;100607.38;;;12.67;100.00
46464;BME280;32161;48.148;-1.554;2024-02-15T05:00:00;100612.25;;;12.65;100.00
46464;BME280;32161;48.148;-1.554;2024-02-15T05:02:35;100603.00;;;12.66;100.00
46464;BME280;32161;48.148;-1.554;2024-02-15T05:05:07;100610.09;;;12.67;100.00
46464;BME280;32161;48.148;-1.554;2024-02-15T05:07:34;100594.22;;;12.64;100.00
46464;BME280;32161;48.148;-1.554;2024-02-15T05:10:06;100597.47;;;12.61;100.00
46464;BME280;32161;48.148;-1.554;2024-02-15T05:12:34;100597.47;;;12.61;100.00
46464;BME280;32161;48.148;-1.554;2024-02-15T05:15:02;100582.75;;;12.62;100.00
46464;BME280;32161;48.148;-1.554;2024-02-15T05:17:37;100587.13;;;12.63;100.00
46464;BME280;32161;48.148;-1.554;2024-02-15T05:20:08;100571.25;;;12.60;100.00
46464;BME280;32161;48.148;-1.554;2024-02-15T05:22:40;100570.69;;;12.58;100.00
46464;BME280;32161;48.148;-1.554;2024-02-15T05:25:12;100565.47;;;12.56;100.00
46464;BME280;32161;48.148;-1.554;2024-02-15T05:27:41;100568.44;;;12.55;100.00
46464;BME280;32161;48.148;-1.554;2024-02-15T05:30:12;100568.72;;;12.53;100.00
46464;BME280;32161;48.148;-1.554;2024-02-15T05:32:40;100563.47;;;12.52;100.00
46464;BME280;32161;48.148;-1.554;2024-02-15T05:35:10;100564.56;;;12.51;100.00
46464;BME280;32161;48.148;-1.554;2024-02-15T05:37:38;100556.63;;;12.49;100.00
46464;BME280;32161;48.148;-1.554;2024-02-15T05:40:07;100558.84;;;12.52;100.00
46464;BME280;32161;48.148;-1.554;2024-02-15T05:42:42;100559.09;;;12.51;100.00
46464;BME280;32161;48.148;-1.554;2024-02-15T05:45:32;100560.75;;;12.52;100.00
46464;BME280;32161;48.148;-1.554;2024-02-15T05:48:06;100554.81;;;12.55;100.00
46464;BME280;32161;48.148;-1.554;2024-02-15T05:50:35;100541.66;;;12.52;100.00
46464;BME280;32161;48.148;-1.554;2024-02-15T05:53:03;100547.94;;;12.52;100.00
46464;BME280;32161;48.148;-1.554;2024-02-15T05:55:33;100534.66;;;12.56;100.00
46464;BME280;32161;48.148;-1.554;2024-02-15T05:58:04;100537.03;;;12.52;100.00
46464;BME280;32161;48.148;-1.554;2024-02-15T06:00:32;100544.41;;;12.52;100.00
46464;BME280;32161;48.148;-1.554;2024-02-15T06:03:00;100525.09;;;12.53;100.00
46464;BME280;32161;48.148;-1.554;2024-02-15T06:05:29;100522.59;;;12.52;100.00
46464;BME280;32161;48.148;-1.554;2024-02-15T06:07:56;100526.06;;;12.47;100.00
46464;BME280;32161;48.148;-1.554;2024-02-15T06:10:25;100512.16;;;12.49;100.00
46464;BME280;32161;48.148;-1.554;2024-02-15T06:12:52;100511.59;;;12.46;100.00
46464;BME280;32161;48.148;-1.554;2024-02-15T06:15:22;100505.56;;;12.44;100.00
46464;BME280;32161;48.148;-1.554;2024-02-15T06:17:49;100496.00;;;12.42;100.00
46464;BME280;32161;48.148;-1.554;2024-02-15T06:20:17;100498.13;;;12.40;100.00
46464;BME280;32161;48.148;-1.554;2024-02-15T06:22:46;100492.94;;;12.38;100.00
46464;BME280;32161;48.148;-1.554;2024-02-15T06:25:14;100487.22;;;12.40;100.00
46464;BME280;32161;48.148;-1.554;2024-02-15T06:27:46;100487.56;;;12.43;100.00
46464;BME280;32161;48.148;-1.554;2024-02-15T06:30:15;100482.59;;;12.40;100.00
46464;BME280;32161;48.148;-1.554;2024-02-15T06:33:01;100473.59;;;12.40;100.00
46464;BME280;32161;48.148;-1.554;2024-02-15T06:35:46;100473.38;;;12.41;100.00
46464;BME280;32161;48.148;-1.554;2024-02-15T06:38:31;100479.13;;;12.45;100.00
46464;BME280;32161;48.148;-1.554;2024-02-15T06:41:16;100474.19;;;12.42;100.00
46464;BME280;32161;48.148;-1.554;2024-02-15T06:43:45;100468.66;;;12.37;100.00
46464;BME280;32161;48.148;-1.554;2024-02-15T06:46:13;100468.22;;;12.45;100.00
46464;BME280;32161;48.148;-1.554;2024-02-15T06:48:43;100471.69;;;12.40;100.00
46464;BME280;32161;48.148;-1.554;2024-02-15T06:51:12;100467.59;;;12.38;100.00
46464;BME280;32161;48.148;-1.554;2024-02-15T06:53:41;100471.63;;;12.35;100.00
46464;BME280;32161;48.148;-1.554;2024-02-15T06:56:09;100480.38;;;12.37;100.00
46464;BME280;32161;48.148;-1.554;2024-02-15T06:58:37;100477.16;;;12.40;100.00
46464;BME280;32161;48.148;-1.554;2024-02-15T07:01:06;100471.53;;;12.47;100.00
46464;BME280;32161;48.148;-1.554;2024-02-15T07:03:34;100462.38;;;12.36;100.00
46464;BME280;32161;48.148;-1.554;2024-02-15T07:06:04;100455.03;;;12.37;100.00
46464;BME280;32161;48.148;-1.554;2024-02-15T07:08:32;100457.19;;;12.35;100.00
46464;BME280;32161;48.148;-1.554;2024-02-15T07:10:59;100446.50;;;12.33;100.00
46464;BME280;32161;48.148;-1.554;2024-02-15T07:13:28;100450.31;;;12.32;100.00
46464;BME280;32161;48.148;-1.554;2024-02-15T07:15:55;100455.22;;;12.30;100.00
46464;BME280;32161;48.148;-1.554;2024-02-15T07:18:23;100452.72;;;12.29;100.00
46464;BME280;32161;48.148;-1.554;2024-02-15T07:20:51;100453.22;;;12.26;100.00
46464;BME280;32161;48.148;-1.554;2024-02-15T07:23:20;100445.88;;;12.26;100.00
46464;BME280;32161;48.148;-1.554;2024-02-15T07:25:48;100441.97;;;12.22;100.00
46464;BME280;32161;48.148;-1.554;2024-02-15T07:28:19;100446.38;;;12.23;100.00
46464;BME280;32161;48.148;-1.554;2024-02-15T07:30:48;100447.19;;;12.24;100.00
46464;BME280;32161;48.148;-1.554;2024-02-15T07:33:17;100446.72;;;12.27;100.00
46464;BME280;32161;48.148;-1.554;2024-02-15T07:35:46;100432.25;;;12.26;100.00
46464;BME280;32161;48.148;-1.554;2024-02-15T07:38:17;100435.06;;;12.31;100.00
46464;BME280;32161;48.148;-1.554;2024-02-15T07:40:46;100438.75;;;12.25;100.00
46464;BME280;32161;48.148;-1.554;2024-02-15T07:43:14;100429.75;;;12.25;100.00
46464;BME280;32161;48.148;-1.554;2024-02-15T07:45:43;100426.94;;;12.36;100.00
46464;BME280;32161;48.148;-1.554;2024-02-15T07:48:10;100433.63;;;12.29;100.00
46464;BME280;32161;48.148;-1.554;2024-02-15T07:50:38;100432.81;;;12.28;100.00
46464;BME280;32161;48.148;-1.554;2024-02-15T07:53:06;100436.69;;;12.32;100.00
46464;BME280;32161;48.148;-1.554;2024-02-15T07:55:34;100423.31;;;12.31;100.00
46464;BME280;32161;48.148;-1.554;2024-02-15T07:58:03;100432.66;;;12.35;100.00
46464;BME280;32161;48.148;-1.554;2024-02-15T08:00:31;100416.88;;;12.37;100.00
46464;BME280;32161;48.148;-1.554;2024-02-15T08:02:59;100424.06;;;12.43;100.00
46464;BME280;32161;48.148;-1.554;2024-02-15T08:05:26;100418.34;;;12.44;100.00
46464;BME280;32161;48.148;-1.554;2024-02-15T08:07:54;100418.09;;;12.46;100.00
46464;BME280;32161;48.148;-1.554;2024-02-15T08:10:23;100419.47;;;12.49;100.00
46464;BME280;32161;48.148;-1.554;2024-02-15T08:12:53;100420.81;;;12.46;100.00
46464;BME280;32161;48.148;-1.554;2024-02-15T08:15:25;100415.44;;;12.51;100.00
46464;BME280;32161;48.148;-1.554;2024-02-15T08:17:53;100415.19;;;12.53;100.00
46464;BME280;32161;48.148;-1.554;2024-02-15T08:20:22;100420.13;;;12.56;100.00
46464;BME280;32161;48.148;-1.554;2024-02-15T08:22:50;100419.03;;;12.57;100.00
46464;BME280;32161;48.148;-1.554;2024-02-15T08:25:17;100424.28;;;12.58;100.00
46464;BME280;32161;48.148;-1.554;2024-02-15T08:27:48;100412.88;;;12.83;100.00
46464;BME280;32161;48.148;-1.554;2024-02-15T08:30:16;100421.03;;;12.83;100.00
46464;BME280;32161;48.148;-1.554;2024-02-15T08:32:45;100408.94;;;12.74;100.00
46464;BME280;32161;48.148;-1.554;2024-02-15T08:35:14;100419.78;;;12.69;100.00
46464;BME280;32161;48.148;-1.554;2024-02-15T08:37:42;100407.22;;;12.90;100.00
46464;BME280;32161;48.148;-1.554;2024-02-15T08:40:13;100414.53;;;12.84;100.00
46464;BME280;32161;48.148;-1.554;2024-02-15T08:42:41;100405.63;;;12.72;100.00
46464;BME280;32161;48.148;-1.554;2024-02-15T08:45:10;100406.72;;;12.71;100.00
46464;BME280;32161;48.148;-1.554;2024-02-15T08:47:40;100418.09;;;12.85;100.00
46464;BME280;32161;48.148;-1.554;2024-02-15T08:50:11;100418.97;;;12.90;100.00
46464;BME280;32161;48.148;-1.554;2024-02-15T08:52:39;100410.78;;;12.90;100.00
46464;BME280;32161;48.148;-1.554;2024-02-15T08:55:09;100406.66;;;12.88;100.00
46464;BME280;32161;48.148;-1.554;2024-02-15T08:57:40;100405.31;;;12.90;100.00
46464;BME280;32161;48.148;-1.554;2024-02-15T09:00:12;100401.00;;;12.94;100.00
46464;BME280;32161;48.148;-1.554;2024-02-15T09:02:43;100403.00;;;12.99;100.00
46464;BME280;32161;48.148;-1.554;2024-02-15T09:05:12;100389.59;;;12.98;100.00
46464;BME280;32161;48.148;-1.554;2024-02-15T09:07:40;100387.44;;;13.00;100.00
46464;BME280;32161;48.148;-1.554;2024-02-15T09:10:09;100368.06;;;13.01;100.00
46464;BME280;32161;48.148;-1.554;2024-02-15T09:12:38;100380.06;;;13.00;100.00
46464;BME280;32161;48.148;-1.554;2024-02-15T09:15:07;100372.56;;;13.34;100.00
46464;BME280;32161;48.148;-1.554;2024-02-15T09:17:35;100371.44;;;13.08;100.00
46464;BME280;32161;48.148;-1.554;2024-02-15T09:20:07;100365.00;;;13.19;100.00
46464;BME280;32161;48.148;-1.554;2024-02-15T09:22:42;100364.25;;;13.51;100.00
46464;BME280;32161;48.148;-1.554;2024-02-15T09:25:12;100364.09;;;13.36;100.00
46464;BME280;32161;48.148;-1.554;2024-02-15T09:27:40;100357.59;;;13.15;100.00
46464;BME280;32161;48.148;-1.554;2024-02-15T09:30:09;100363.38;;;13.18;100.00
46464;BME280;32161;48.148;-1.554;2024-02-15T09:32:38;100361.78;;;13.01;100.00
46464;BME280;32161;48.148;-1.554;2024-02-15T09:35:08;100362.47;;;13.35;100.00
46464;BME280;32161;48.148;-1.554;2024-02-15T09:37:36;100339.94;;;13.50;100.00
46464;BME280;32161;48.148;-1.554;2024-02-15T09:40:11;100345.44;;;13.55;100.00
46464;BME280;32161;48.148;-1.554;2024-02-15T09:42:39;100337.31;;;13.33;100.00
46464;BME280;32161;48.148;-1.554;2024-02-15T09:45:08;100337.22;;;13.50;100.00
46464;BME280;32161;48.148;-1.554;2024-02-15T09:47:37;100339.72;;;13.56;100.00
46464;BME280;32161;48.148;-1.554;2024-02-15T09:50:07;100352.97;;;13.42;100.00
46464;BME280;32161;48.148;-1.554;2024-02-15T09:52:39;100354.47;;;13.55;100.00
46464;BME280;32161;48.148;-1.554;2024-02-15T09:55:09;100355.03;;;13.57;100.00
46464;BME280;32161;48.148;-1.554;2024-02-15T09:57:39;100356.53;;;13.75;100.00
46464;BME280;32161;48.148;-1.554;2024-02-15T10:00:10;100351.16;;;13.85;100.00
46464;BME280;32161;48.148;-1.554;2024-02-15T10:02:41;100349.66;;;14.05;100.00
46464;BME280;32161;48.148;-1.554;2024-02-15T10:05:10;100351.28;;;14.01;100.00
46464;BME280;32161;48.148;-1.554;2024-02-15T10:07:38;100363.03;;;14.01;100.00
46464;BME280;32161;48.148;-1.554;2024-02-15T10:10:19;100365.53;;;14.08;100.00
46464;BME280;32161;48.148;-1.554;2024-02-15T10:12:47;100368.91;;;14.20;100.00
46464;BME280;32161;48.148;-1.554;2024-02-15T10:15:30;100371.16;;;14.33;100.00
46464;BME280;32161;48.148;-1.554;2024-02-15T10:17:58;100361.91;;;14.45;100.00
46464;BME280;32161;48.148;-1.554;2024-02-15T10:20:26;100357.47;;;14.33;100.00
46464;BME280;32161;48.148;-1.554;2024-02-15T10:23:10;100364.63;;;14.34;100.00
46464;BME280;32161;48.148;-1.554;2024-02-15T10:25:40;100359.75;;;14.41;100.00
46464;BME280;32161;48.148;-1.554;2024-02-15T10:28:10;100341.22;;;14.54;100.00
46464;BME280;32161;48.148;-1.554;2024-02-15T10:30:40;100336.31;;;14.56;100.00
46464;BME280;32161;48.148;-1.554;2024-02-15T10:33:10;100336.06;;;14.62;100.00
46464;BME280;32161;48.148;-1.554;2024-02-15T10:35:38;100343.06;;;14.48;100.00
46464;BME280;32161;48.148;-1.554;2024-02-15T10:38:07;100332.28;;;14.74;100.00
46464;BME280;32161;48.148;-1.554;2024-02-15T10:40:36;100328.75;;;14.83;100.00
46464;BME280;32161;48.148;-1.554;2024-02-15T10:43:05;100336.91;;;14.68;100.00
46464;BME280;32161;48.148;-1.554;2024-02-15T10:45:35;100333.97;;;14.80;100.00
46464;BME280;32161;48.148;-1.554;2024-02-15T10:48:07;100319.94;;;14.61;100.00
46464;BME280;32161;48.148;-1.554;2024-02-15T10:50:35;100320.31;;;14.95;100.00
46464;BME280;32161;48.148;-1.554;2024-02-15T10:53:14;100307.75;;;15.04;100.00
46464;BME280;32161;48.148;-1.554;2024-02-15T10:55:57;100305.03;;;15.20;100.00
46464;BME280;32161;48.148;-1.554;2024-02-15T10:58:33;100298.16;;;14.92;100.00
46464;BME280;32161;48.148;-1.554;2024-02-15T11:01:01;100287.13;;;14.66;100.00
46464;BME280;32161;48.148;-1.554;2024-02-15T11:03:36;100291.81;;;14.81;100.00
46464;BME280;32161;48.148;-1.554;2024-02-15T11:06:10;100298.72;;;15.09;100.00
46464;BME280;32161;48.148;-1.554;2024-02-15T11:08:38;100275.19;;;15.03;100.00
46464;BME280;32161;48.148;-1.554;2024-02-15T11:11:06;100266.16;;;15.12;100.00
46464;BME280;32161;48.148;-1.554;2024-02-15T11:13:39;100275.16;;;15.13;100.00
46464;BME280;32161;48.148;-1.554;2024-02-15T11:16:08;100264.78;;;15.20;100.00
46464;BME280;32161;48.148;-1.554;2024-02-15T11:18:44;100253.84;;;15.30;100.00
46464;BME280;32161;48.148;-1.554;2024-02-15T11:21:15;100242.88;;;15.51;100.00
46464;BME280;32161;48.148;-1.554;2024-02-15T11:23:44;100245.59;;;15.41;100.00
46464;BME280;32161;48.148;-1.554;2024-02-15T11:26:46;100232.19;;;15.54;100.00
46464;BME280;32161;48.148;-1.554;2024-02-15T11:29:51;100231.63;;;15.52;100.00
46464;BME280;32161;48.148;-1.554;2024-02-15T11:32:41;100223.72;;;15.66;100.00
46464;BME280;32161;48.148;-1.554;2024-02-15T11:35:12;100224.50;;;15.72;100.00
46464;BME280;32161;48.148;-1.554;2024-02-15T11:37:56;100214.41;;;15.72;100.00
46464;BME280;32161;48.148;-1.554;2024-02-15T11:41:03;100200.41;;;15.74;100.00
46464;BME280;32161;48.148;-1.554;2024-02-15T11:43:52;100199.19;;;16.05;100.00
46464;BME280;32161;48.148;-1.554;2024-02-15T11:46:26;100196.97;;;16.13;100.00
46464;BME280;32161;48.148;-1.554;2024-02-15T11:48:57;100191.59;;;15.82;100.00
46464;BME280;32161;48.148;-1.554;2024-02-15T11:51:35;100200.63;;;15.93;100.00
46464;BME280;32161;48.148;-1.554;2024-02-15T11:54:09;100195.13;;;15.98;100.00
46464;BME280;32161;48.148;-1.554;2024-02-15T11:56:54;100179.81;;;15.86;100.00
46464;BME280;32161;48.148;-1.554;2024-02-15T11:59:38;100176.38;;;16.20;100.00
46464;BME280;32161;48.148;-1.554;2024-02-15T12:02:20;100171.84;;;15.95;100.00
46464;BME280;32161;48.148;-1.554;2024-02-15T12:05:06;100168.25;;;15.95;100.00
46464;BME280;32161;48.148;-1.554;2024-02-15T12:07:54;100175.94;;;16.03;100.00
46464;BME280;32161;48.148;-1.554;2024-02-15T12:10:39;100176.72;;;16.08;100.00
46464;BME280;32161;48.148;-1.554;2024-02-15T12:13:25;100167.56;;;16.28;100.00
46464;BME280;32161;48.148;-1.554;2024-02-15T12:16:10;100176.31;;;16.35;100.00
46464;BME280;32161;48.148;-1.554;2024-02-15T12:19:01;100188.31;;;16.50;100.00
46464;BME280;32161;48.148;-1.554;2024-02-15T12:21:29;100185.72;;;16.74;100.00
46464;BME280;32161;48.148;-1.554;2024-02-15T12:23:57;100179.78;;;16.51;100.00
46464;BME280;32161;48.148;-1.554;2024-02-15T12:26:25;100173.00;;;16.39;100.00
46464;BME280;32161;48.148;-1.554;2024-02-15T12:28:54;100160.63;;;16.41;100.00
46464;BME280;32161;48.148;-1.554;2024-02-15T12:31:22;100158.78;;;16.31;100.00
46464;BME280;32161;48.148;-1.554;2024-02-15T12:34:01;100166.06;;;16.51;100.00
46464;BME280;32161;48.148;-1.554;2024-02-15T12:36:33;100163.38;;;16.46;100.00
46464;BME280;32161;48.148;-1.554;2024-02-15T12:39:04;100168.91;;;16.36;100.00
46464;BME280;32161;48.148;-1.554;2024-02-15T12:41:38;100169.72;;;16.36;100.00
46464;BME280;32161;48.148;-1.554;2024-02-15T12:44:07;100168.84;;;16.46;100.00
46464;BME280;32161;48.148;-1.554;2024-02-15T12:46:36;100160.19;;;16.24;100.00